Date,TemperatureHighF,TemperatureAvgF,TemperatureLowF,DewpointHighF,DewpointAvgF,DewpointLowF,HumidityHigh,HumidityAvg,HumidityLow,PressureMaxIn,PressureMinIn,WindSpeedMaxMPH,WindSpeedAvgMPH,GustSpeedMaxMPH,PrecipitationSumIn
2013-9-1,86,76,69,-100,-100,-100,0,0,100,0.00,40.00,0,-999,0,0.00
2013-9-2,86,77,69,-100,-100,-100,0,0,100,0.00,40.00,0,-999,0,0.00
2013-9-3,87,79,70,-100,-100,-100,0,0,100,0.00,40.00,0,-999,0,0.00
2013-9-4,92,81,71,-100,-100,-100,0,0,100,0.00,40.00,0,-999,0,0.00
2013-9-5,89,80,71,-100,-100,-100,0,0,100,0.00,40.00,0,-999,0,0.00
2013-9-6,90,80,69,-100,-100,-100,0,0,100,0.00,40.00,0,-999,0,0.00
2013-9-7,90,79,71,-100,-100,-100,0,0,100,0.00,40.00,0,-999,0,0.00
2013-9-8,78,71,64,-100,-100,-100,0,0,100,0.00,40.00,0,-999,0,0.00
2013-9-9,64,59,55,-100,-100,-100,0,0,100,0.00,40.00,0,-999,0,0.00
2013-9-10,63,59,57,-100,-100,-100,0,0,100,0.00,40.00,0,-999,0,0.00
2013-9-11,69,63,59,-100,-100,-100,0,0,100,0.00,40.00,0,-999,0,0.00
2013-9-12,71,66,60,-100,-100,-100,0,0,100,0.00,40.00,0,-999,0,0.00
2013-9-13,71,64,58,-100,-100,-100,0,0,100,0.00,40.00,0,-999,0,0.00
2013-9-14,64,60,55,-100,-100,-100,0,0,100,0.00,40.00,0,-999,0,0.00
2013-9-15,70,63,57,-100,-100,-100,0,0,100,0.00,40.00,0,-999,0,0.00
2013-9-16,76,67,60,-100,-100,-100,0,0,100,0.00,40.00,0,-999,0,0.00
2013-9-17,72,66,60,-100,-100,-100,0,0,100,0.00,40.00,0,-999,0,0.00
2013-9-18,70,64,60,-100,-100,-100,0,0,100,0.00,40.00,0,-999,0,0.00
2013-9-19,72,63,56,-100,-100,-100,0,0,100,0.00,40.00,0,-999,0,0.00
2013-9-20,73,64,54,-100,-100,-100,0,0,100,0.00,40.00,0,-999,0,0.00
2013-9-21,78,70,56,-100,-100,-100,0,0,100,0.00,40.00,0,-999,0,0.00
2013-9-22,69,60,48,-100,-100,-100,0,0,100,0.00,40.00,0,-999,0,0.00
2013-9-23,63,54,46,-100,-100,-100,0,0,100,0.00,40.00,0,-999,0,0.00
2013-9-24,67,58,47,-100,-100,-100,0,0,100,0.00,40.00,0,-999,0,0.00
2013-9-25,75,69,62,-100,-100,-100,0,0,100,0.00,40.00,0,-999,0,0.00
2013-9-26,72,66,60,-100,-100,-100,0,0,100,0.00,40.00,0,-999,0,0.00
2013-9-27,60,48,43,-100,-100,-100,0,0,100,0.00,40.00,0,-999,0,0.00
2013-9-28,56,46,37,-100,-100,-100,0,0,100,0.00,40.00,0,-999,0,0.00
2013-9-29,64,54,42,-100,-100,-100,0,0,100,0.00,40.00,0,-999,0,0.00
2013-9-30,70,64,54,-100,-100,-100,0,0,100,0.00,40.00,0,-999,0,0.00